Time;durP1;ratioP1;P1;durP2;ratioP2;P2;SDS_P1;SDS_P2;PMS_P1;PMS_P2;Temp;Humidity;BMP_temperature;BMP_pressure;BME280_temperature;BME280_humidity;BME280_pressure;Samples;Min_cycle;Max_cycle;Signal;HPM_P1;HPM_P2
2021/04/20 00:01:20;;;;;;;74.27;44.10;;;;;;;8.60;75.51;100626.29;1671243;85;21253;-74
2021/04/20 00:03:47;;;;;;;90.00;44.25;;;;;;;8.61;75.58;100624.47;1671113;85;21642;-74
2021/04/20 00:06:14;;;;;;;86.53;41.00;;;;;;;8.61;75.66;100619.16;1671359;85;21260;-74
2021/04/20 00:08:40;;;;;;;84.60;49.45;;;;;;;8.61;75.73;100619.16;1671403;85;21238;-74
2021/04/20 00:11:07;;;;;;;94.35;57.62;;;;;;;8.62;75.80;100616.84;1671358;85;21678;-74
2021/04/20 00:13:33;;;;;;;85.70;62.20;;;;;;;8.68;75.88;100621.06;1671280;85;21209;-74
2021/04/20 00:16:00;;;;;;;72.25;52.70;;;;;;;8.73;75.94;100618.77;1671306;85;21200;-74
2021/04/20 00:18:26;;;;;;;63.38;42.50;;;;;;;8.78;76.01;100618.31;1671371;85;21708;-74
2021/04/20 00:20:52;;;;;;;64.62;41.30;;;;;;;8.79;76.06;100622.16;1671254;85;21192;-74
2021/04/20 00:23:18;;;;;;;57.60;38.42;;;;;;;8.81;76.13;100618.84;1671080;85;21259;-74
2021/04/20 00:25:45;;;;;;;65.10;38.42;;;;;;;8.81;76.20;100621.50;1670889;85;21197;-74
2021/04/20 00:28:11;;;;;;;60.88;35.13;;;;;;;8.77;76.25;100619.29;1671404;85;21666;-74
2021/04/20 00:30:38;;;;;;;48.87;30.70;;;;;;;8.76;76.29;100622.96;1671483;85;21666;-74
2021/04/20 00:33:04;;;;;;;62.27;32.98;;;;;;;8.71;76.34;100618.58;1671152;85;21177;-74
2021/04/20 00:35:31;;;;;;;53.80;31.35;;;;;;;8.69;76.41;100620.56;1671271;85;21248;-74
2021/04/20 00:37:57;;;;;;;49.10;26.68;;;;;;;8.67;76.44;100617.20;1671468;85;21662;-74
2021/04/20 00:40:23;;;;;;;39.50;25.48;;;;;;;8.63;76.46;100611.85;1669467;85;21181;-74
2021/04/20 00:42:54;;;;;;;44.33;24.90;;;;;;;8.60;76.51;100612.16;1669396;85;21296;-74
2021/04/20 00:45:24;;;;;;;33.23;23.47;;;;;;;8.55;76.52;100605.15;1669087;85;21559;-74
2021/04/20 00:47:50;;;;;;;32.17;21.42;;;;;;;8.44;76.56;100599.56;1669573;85;26831;-71
2021/04/20 00:50:19;;;;;;;28.40;18.30;;;;;;;8.32;76.61;100594.95;1669310;85;21201;-72
2021/04/20 00:52:45;;;;;;;26.77;18.02;;;;;;;8.25;76.64;100595.67;1669366;85;22160;-72
2021/04/20 00:55:12;;;;;;;31.35;21.73;;;;;;;8.17;76.68;100597.73;1669351;85;21177;-72
2021/04/20 00:57:39;;;;;;;32.45;23.27;;;;;;;8.16;76.71;100588.61;1669407;85;21194;-72
2021/04/20 01:00:12;;;;;;;38.02;24.60;;;;;;;8.14;76.73;100587.42;1669415;85;21693;-72
2021/04/20 01:02:38;;;;;;;35.55;23.18;;;;;;;8.14;76.80;100587.42;1668981;85;21253;-72
2021/04/20 01:05:12;;;;;;;32.03;23.25;;;;;;;8.17;76.82;100586.27;1669410;85;21154;-72
2021/04/20 01:07:39;;;;;;;35.13;22.95;;;;;;;8.17;76.86;100583.13;1669444;85;21170;-74
2021/04/20 01:10:07;;;;;;;44.80;26.12;;;;;;;8.19;76.89;100585.16;1669281;85;21712;-72
2021/04/20 01:12:35;;;;;;;43.48;29.02;;;;;;;8.20;76.92;100589.47;1669091;85;22130;-72
2021/04/20 01:15:02;;;;;;;39.80;27.27;;;;;;;8.22;76.96;100586.19;1648199;85;21192;-72
2021/04/20 01:17:29;;;;;;;35.63;25.43;;;;;;;8.22;76.99;100591.98;1669409;85;21210;-72
2021/04/20 01:19:58;;;;;;;34.65;24.98;;;;;;;8.15;77.04;100590.42;1669113;85;21514;-72
2021/04/20 01:22:24;;;;;;;39.08;25.55;;;;;;;8.12;77.09;100584.09;1648583;85;21162;-72
2021/04/20 01:24:51;;;;;;;42.27;28.38;;;;;;;8.09;77.11;100588.38;1669456;85;21217;-72
2021/04/20 01:27:17;;;;;;;44.73;30.62;;;;;;;8.04;77.12;100580.84;1669650;85;21563;-72
2021/04/20 01:29:43;;;;;;;49.13;32.73;;;;;;;7.97;77.16;100585.57;1669767;85;21177;-72
2021/04/20 01:32:10;;;;;;;52.43;33.85;;;;;;;7.89;77.22;100586.80;1669713;85;21273;-74
2021/04/20 01:34:38;;;;;;;46.73;33.70;;;;;;;7.82;77.24;100578.59;1669818;85;21181;-72
2021/04/20 01:37:05;;;;;;;42.73;28.95;;;;;;;7.76;77.30;100579.19;1648830;85;21280;-72
2021/04/20 01:39:31;;;;;;;39.25;26.65;;;;;;;7.72;77.32;100583.60;1641808;86;21670;-72
2021/04/20 01:41:57;;;;;;;41.60;25.62;;;;;;;7.70;77.34;100581.60;1652464;86;21671;-72
2021/04/20 01:44:23;;;;;;;39.15;24.23;;;;;;;7.61;77.36;100583.78;1652629;86;21209;-72
2021/04/20 01:46:50;;;;;;;33.20;23.22;;;;;;;7.52;77.42;100582.38;1652814;86;21662;-72
2021/04/20 01:49:16;;;;;;;35.23;22.77;;;;;;;7.45;77.44;100587.92;1652654;86;21252;-72
2021/04/20 01:51:42;;;;;;;39.08;23.62;;;;;;;7.37;77.49;100585.14;1652713;86;21222;-71
2021/04/20 01:54:09;;;;;;;32.23;19.50;;;;;;;7.27;77.52;100585.67;1652454;86;21647;-72
2021/04/20 01:56:35;;;;;;;30.30;19.12;;;;;;;7.20;77.54;100579.75;1652536;86;21703;-72
2021/04/20 01:59:02;;;;;;;26.20;18.90;;;;;;;7.20;77.57;100574.45;1652651;86;21155;-72
2021/04/20 02:01:28;;;;;;;35.88;22.45;;;;;;;7.20;77.58;100577.10;1652799;86;22089;-72
2021/04/20 02:03:55;;;;;;;35.33;22.73;;;;;;;7.14;77.61;100581.18;1652418;86;21190;-72
2021/04/20 02:06:23;;;;;;;32.42;20.20;;;;;;;7.06;77.65;100577.55;1652758;86;21225;-72
2021/04/20 02:08:50;;;;;;;34.58;22.52;;;;;;;6.95;77.70;100582.53;1652719;86;21635;-74
2021/04/20 02:11:18;;;;;;;36.95;24.82;;;;;;;6.91;77.76;100579.81;1652596;86;21436;-72
2021/04/20 02:13:45;;;;;;;36.63;25.95;;;;;;;6.92;77.77;100588.12;1652729;86;21307;-72
2021/04/20 02:16:11;;;;;;;37.28;24.85;;;;;;;6.84;77.79;100581.36;1652729;86;21651;-73
2021/04/20 02:18:44;;;;;;;31.45;21.90;;;;;;;6.77;77.83;100581.09;1652808;86;21178;-73
2021/04/20 02:21:12;;;;;;;37.28;23.20;;;;;;;6.73;77.86;100582.34;1652688;86;21650;-73
2021/04/20 02:23:41;;;;;;;32.40;20.40;;;;;;;6.73;77.87;100579.69;1652193;85;21226;-74
2021/04/20 02:26:10;;;;;;;31.02;21.02;;;;;;;6.68;77.89;100579.78;1633719;86;21240;-74
2021/04/20 02:28:37;;;;;;;26.40;15.23;;;;;;;6.63;77.93;100578.86;1652684;86;21234;-73
2021/04/20 02:31:07;;;;;;;34.78;21.52;;;;;;;6.60;77.99;100579.63;1652763;86;21178;-74
2021/04/20 02:33:33;;;;;;;;;;;;;;;6.60;78.01;100575.66;1655217;86;21166;-73
2021/04/20 02:36:00;;;;;;;49.63;26.07;;;;;;;6.54;78.03;100575.23;1652830;86;20262;-73
2021/04/20 02:38:27;;;;;;;47.83;25.25;;;;;;;6.47;78.06;100579.92;1652690;86;21213;-73
2021/04/20 02:40:55;;;;;;;37.63;21.85;;;;;;;6.45;78.13;100580.53;1666851;85;21217;-73
2021/04/20 02:43:22;;;;;;;30.43;20.20;;;;;;;6.42;78.17;100576.36;1669816;85;21634;-73
2021/04/20 02:45:55;;;;;;;36.35;21.10;;;;;;;6.43;78.18;100578.05;1669764;85;21165;-73
2021/04/20 02:48:21;;;;;;;54.08;27.60;;;;;;;6.39;78.22;100575.32;1669941;85;21234;-73
2021/04/20 02:50:48;;;;;;;44.53;26.02;;;;;;;6.37;78.25;100571.11;1669764;85;21241;-73
2021/04/20 02:53:16;;;;;;;27.93;22.70;;;;;;;6.37;78.31;100570.62;1669808;85;21174;-73
2021/04/20 02:55:44;;;;;;;36.58;22.77;;;;;;;6.38;78.34;100570.14;1669689;85;21173;-73
2021/04/20 02:58:20;;;;;;;53.75;26.82;;;;;;;6.45;78.36;100572.59;1669860;85;21204;-73
2021/04/20 03:00:56;;;;;;;41.63;22.80;;;;;;;6.47;78.40;100576.77;1669816;85;21165;-73
2021/04/20 03:03:22;;;;;;;41.37;22.13;;;;;;;6.45;78.41;100570.78;1669722;85;21266;-73
2021/04/20 03:05:49;;;;;;;35.17;21.82;;;;;;;6.48;78.47;100573.15;1669775;85;21185;-73
2021/04/20 03:08:15;;;;;;;51.53;27.22;;;;;;;6.49;78.53;100569.53;1669646;85;21198;-73
2021/04/20 03:10:42;;;;;;;41.98;24.12;;;;;;;6.48;78.57;100567.84;1669739;85;21672;-73
2021/04/20 03:13:08;;;;;;;42.53;25.12;;;;;;;6.49;78.63;100564.23;1669829;85;21174;-73
2021/04/20 03:15:35;;;;;;;43.30;26.82;;;;;;;6.57;78.66;100562.70;1669772;85;21177;-73
2021/04/20 03:18:01;;;;;;;42.38;26.73;;;;;;;6.62;78.72;100559.96;1669707;85;21638;-73
2021/04/20 03:20:27;;;;;;;36.58;26.77;;;;;;;6.70;78.74;100557.94;1669662;85;21174;-73
2021/04/20 03:22:55;;;;;;;39.60;27.62;;;;;;;6.76;78.79;100561.34;1669706;85;22389;-73
2021/04/20 03:25:27;;;;;;;40.95;25.35;;;;;;;6.80;78.84;100552.97;1669298;85;21161;-73
2021/04/20 03:27:56;;;;;;;38.17;24.47;;;;;;;6.86;78.86;100555.05;1669754;85;21284;-73
2021/04/20 03:30:25;;;;;;;55.80;29.52;;;;;;;6.84;78.91;100553.04;1669799;85;21210;-73
2021/04/20 03:33:15;;;;;;;65.55;31.42;;;;;;;6.83;78.95;100559.80;1670103;85;21157;-73
2021/04/20 03:35:48;;;;;;;;;;;;;;;6.76;79.01;100558.20;1667809;85;21197;-73
2021/04/20 03:38:25;;;;;;;67.05;35.05;;;;;;;6.73;79.11;100556.33;1669605;85;20297;-72
2021/04/20 03:40:56;;;;;;;61.60;33.98;;;;;;;6.77;79.17;100556.39;1669707;85;21559;-72
2021/04/20 03:43:26;;;;;;;56.18;29.70;;;;;;;6.78;79.21;100548.31;1669726;85;21221;-72
2021/04/20 03:46:03;;;;;;;53.02;27.58;;;;;;;6.84;79.22;100548.22;1669976;85;21154;-72
2021/04/20 03:48:36;;;;;;;44.58;25.50;;;;;;;6.83;79.28;100555.33;1669763;85;21159;-72
2021/04/20 03:51:12;;;;;;;43.23;23.65;;;;;;;6.86;79.32;100550.27;1669595;85;21602;-73
2021/04/20 03:53:40;;;;;;;38.30;22.77;;;;;;;6.91;79.34;100550.66;1670030;85;21210;-72
2021/04/20 03:56:06;;;;;;;36.80;19.05;;;;;;;6.98;79.37;100544.64;1669687;85;21190;-72
2021/04/20 03:58:33;;;;;;;34.15;19.50;;;;;;;7.03;79.40;100544.22;1648494;85;21674;-72
2021/04/20 04:01:02;;;;;;;45.95;24.12;;;;;;;7.08;79.42;100541.11;1669836;85;21610;-72
2021/04/20 04:03:29;;;;;;;41.83;25.25;;;;;;;7.11;79.47;100548.29;1669980;85;21181;-72
2021/04/20 04:05:55;;;;;;;39.23;22.55;;;;;;;7.12;79.47;100547.80;1669921;85;22605;-72
2021/04/20 04:08:21;;;;;;;35.20;22.40;;;;;;;7.08;79.54;100544.61;1648556;85;21701;-72
2021/04/20 04:10:51;;;;;;;34.70;22.48;;;;;;;7.09;79.56;100542.30;1669833;85;21222;-72
2021/04/20 04:13:17;;;;;;;34.95;22.98;;;;;;;7.13;79.58;100542.37;1669801;85;21232;-73
2021/04/20 04:15:44;;;;;;;49.35;27.02;;;;;;;7.17;79.59;100539.78;1669961;85;21193;-73
2021/04/20 04:18:12;;;;;;;53.28;26.52;;;;;;;7.19;79.60;100544.44;1669934;85;22185;-73
2021/04/20 04:20:38;;;;;;;49.40;27.07;;;;;;;7.13;79.66;100546.34;1669876;85;21233;-73
2021/04/20 04:23:15;;;;;;;44.42;25.92;;;;;;;7.12;79.71;100543.34;1669966;85;21169;-73
2021/04/20 04:25:47;;;;;;;39.18;22.00;;;;;;;7.16;79.74;100546.54;1669606;85;21187;-73
2021/04/20 04:28:13;;;;;;;36.83;20.92;;;;;;;7.21;79.73;100554.43;1669863;85;21197;-73
2021/04/20 04:30:40;;;;;;;44.23;23.98;;;;;;;7.18;79.75;100551.23;1669891;85;21946;-73
2021/04/20 04:33:06;;;;;;;49.38;25.90;;;;;;;7.13;79.79;100553.46;1669811;85;21226;-73
2021/04/20 04:35:34;;;;;;;37.83;20.80;;;;;;;7.15;79.82;100558.96;1669765;85;21598;-73
2021/04/20 04:38:01;;;;;;;27.30;17.17;;;;;;;7.14;79.84;100557.31;1669917;85;21181;-73
2021/04/20 04:40:27;;;;;;;27.25;16.52;;;;;;;7.15;79.86;100553.66;1670543;85;21234;-73
2021/04/20 04:42:53;;;;;;;31.17;16.67;;;;;;;7.17;79.87;100558.34;1671739;85;21218;-73
2021/04/20 04:45:20;;;;;;;25.77;15.70;;;;;;;7.17;79.86;100564.13;1671763;85;21601;-73
2021/04/20 04:47:46;;;;;;;21.93;16.48;;;;;;;7.22;79.92;100570.66;1671777;85;21170;-73
2021/04/20 04:50:13;;;;;;;29.60;17.15;;;;;;;7.25;79.91;100565.06;1671662;85;21218;-73
2021/04/20 04:52:40;;;;;;;30.32;17.32;;;;;;;7.29;79.91;100563.80;1671828;85;21174;-73
2021/04/20 04:55:08;;;;;;;42.73;19.55;;;;;;;7.34;79.97;100569.52;1671855;85;21205;-73
2021/04/20 04:57:34;;;;;;;34.85;19.35;;;;;;;7.39;79.97;100573.89;1671714;85;21239;-73
2021/04/20 05:00:06;;;;;;;35.80;21.27;;;;;;;7.47;80.00;100564.72;1671611;85;21165;-73
2021/04/20 05:02:34;;;;;;;52.27;26.30;;;;;;;7.48;80.02;100571.70;1671926;85;21181;-73
2021/04/20 05:05:06;;;;;;;51.83;24.25;;;;;;;7.48;80.08;100563.75;1671678;85;21625;-74
2021/04/20 05:07:32;;;;;;;53.58;28.98;;;;;;;7.54;80.13;100574.25;1671880;85;21219;-74
2021/04/20 05:10:01;;;;;;;54.45;26.87;;;;;;;7.59;80.14;100572.02;1671723;85;21181;-73
2021/04/20 05:12:27;;;;;;;40.08;24.67;;;;;;;7.60;80.12;100571.52;1671764;85;21193;-74
2021/04/20 05:14:54;;;;;;;71.25;31.25;;;;;;;7.58;80.16;100578.78;1671823;85;21650;-74
2021/04/20 05:17:21;;;;;;;71.28;36.03;;;;;;;7.58;80.20;100576.13;1671738;85;21169;-73
2021/04/20 05:19:47;;;;;;;71.02;36.13;;;;;;;7.66;80.21;100582.38;1648690;85;21237;-73
2021/04/20 05:22:14;;;;;;;87.88;39.35;;;;;;;7.68;80.20;100577.75;1671446;85;21185;-73
2021/04/20 05:24:40;;;;;;;104.12;46.85;;;;;;;7.73;80.24;100582.63;1671493;85;21201;-73
2021/04/20 05:27:07;;;;;;;124.35;50.50;;;;;;;7.82;80.26;100587.04;1671613;85;21629;-73
2021/04/20 05:29:34;;;;;;;99.17;44.60;;;;;;;7.91;80.26;100584.84;1671863;85;21157;-73
2021/04/20 05:32:00;;;;;;;90.17;39.18;;;;;;;8.00;80.25;100590.58;1671843;85;21287;-73
2021/04/20 05:34:27;;;;;;;79.37;33.60;;;;;;;8.06;80.28;100593.96;1671503;85;21201;-73
2021/04/20 05:36:53;;;;;;;74.25;33.38;;;;;;;8.16;80.30;100588.12;1671850;85;21202;-73
2021/04/20 05:39:19;;;;;;;58.90;31.20;;;;;;;8.21;80.30;100592.48;1671389;85;21218;-73
2021/04/20 05:41:46;;;;;;;65.12;34.23;;;;;;;8.26;80.32;100594.20;1671598;85;21654;-73
2021/04/20 05:44:13;;;;;;;62.05;30.85;;;;;;;8.34;80.33;100594.30;1671689;85;21983;-73
2021/04/20 05:46:42;;;;;;;61.02;32.42;;;;;;;8.39;80.35;100589.37;1671849;85;21181;-73
2021/04/20 05:49:09;;;;;;;42.62;28.83;;;;;;;8.46;80.34;100595.77;1671690;85;21230;-73
2021/04/20 05:51:36;;;;;;;53.33;31.90;;;;;;;8.52;80.36;100597.80;1671802;85;21205;-73
2021/04/20 05:54:03;;;;;;;54.38;31.27;;;;;;;8.63;80.38;100583.45;1671826;85;21173;-73
2021/04/20 05:56:29;;;;;;;45.20;28.27;;;;;;;8.73;80.34;100586.85;1671521;85;21335;-73
2021/04/20 05:58:57;;;;;;;40.70;27.42;;;;;;;8.81;80.30;100593.58;1671716;85;21265;-73
2021/04/20 06:01:25;;;;;;;43.65;26.00;;;;;;;8.95;80.29;100596.17;1671722;85;21162;-73
2021/04/20 06:03:51;;;;;;;30.80;20.68;;;;;;;9.09;80.29;100592.95;1671678;85;21160;-73
2021/04/20 06:06:20;;;;;;;30.12;21.57;;;;;;;9.24;80.27;100592.73;1671735;85;21595;-73
2021/04/20 06:08:47;;;;;;;40.78;23.15;;;;;;;9.30;80.27;100596.09;1671734;85;21201;-73
2021/04/20 06:11:13;;;;;;;38.78;21.52;;;;;;;9.37;80.22;100590.48;1671663;85;21677;-73
2021/04/20 06:13:39;;;;;;;37.00;21.48;;;;;;;9.50;80.20;100589.55;1671773;85;21154;-73
2021/04/20 06:16:06;;;;;;;26.37;17.60;;;;;;;9.62;80.18;100586.62;1671779;85;21197;-73
2021/04/20 06:18:33;;;;;;;30.10;18.15;;;;;;;9.73;80.11;100591.66;1671542;85;21174;-73
2021/04/20 06:21:00;;;;;;;26.93;17.15;;;;;;;9.82;80.08;100582.70;1677139;85;21201;-73
2021/04/20 06:23:27;;;;;;;29.18;18.57;;;;;;;9.97;80.00;100584.61;1677886;85;21205;-73
2021/04/20 06:25:59;;;;;;;22.20;16.17;;;;;;;10.07;79.94;100587.13;1678056;85;21145;-73
2021/04/20 06:28:26;;;;;;;33.67;17.67;;;;;;;10.14;79.90;100582.84;1679536;84;21787;-73
2021/04/20 06:30:57;;;;;;;25.02;15.35;;;;;;;10.21;79.86;100582.53;1696468;84;21132;-74
2021/04/20 06:33:27;;;;;;;27.25;15.15;;;;;;;10.31;79.83;100584.55;1682193;84;21239;-74
2021/04/20 06:35:53;;;;;;;26.30;15.53;;;;;;;10.37;79.74;100585.25;1650307;85;21190;-73
2021/04/20 06:38:20;;;;;;;27.07;16.67;;;;;;;10.54;79.62;100582.10;1674031;85;21182;-74
2021/04/20 06:40:52;;;;;;;23.47;16.97;;;;;;;10.89;79.53;100575.61;1677942;85;21175;-74
2021/04/20 06:43:32;;;;;;;29.12;18.67;;;;;;;11.26;79.37;100583.89;1678697;84;21620;-74
2021/04/20 06:46:11;;;;;;;30.35;17.87;;;;;;;11.68;79.22;100584.14;1677086;85;21307;-74
2021/04/20 06:48:47;;;;;;;24.05;16.25;;;;;;;12.09;79.01;100581.64;1678000;85;21195;-74
2021/04/20 06:51:18;;;;;;;26.40;14.87;;;;;;;12.20;78.81;100581.25;1683255;84;21172;-75
2021/04/20 06:53:57;;;;;;;22.62;15.13;;;;;;;12.27;78.62;100581.38;1706896;84;21155;-74
2021/04/20 06:56:36;;;;;;;26.48;14.55;;;;;;;12.48;78.40;100582.91;1671840;85;21525;-74
2021/04/20 06:59:35;;;;;;;18.42;13.83;;;;;;;12.37;78.10;100582.81;1678853;84;21181;-74
2021/04/20 07:02:10;;;;;;;23.67;15.50;;;;;;;12.22;77.85;100573.88;1678718;84;21599;-74
2021/04/20 07:04:51;;;;;;;29.23;18.10;;;;;;;12.40;77.73;100573.09;1678504;85;21213;-75
2021/04/20 07:07:42;;;;;;;31.50;16.95;;;;;;;12.46;77.53;100576.39;1665149;84;21760;-74
2021/04/20 07:10:17;;;;;;;30.77;17.35;;;;;;;12.64;77.37;100576.59;1679714;84;21169;-75
2021/04/20 07:12:44;;;;;;;27.20;17.95;;;;;;;12.94;77.11;100569.01;1664431;85;21676;-74
2021/04/20 07:15:20;;;;;;;26.75;18.12;;;;;;;13.24;76.87;100577.44;1677663;85;21206;-75
2021/04/20 07:18:07;;;;;;;31.60;17.15;;;;;;;13.46;76.62;100567.17;1675041;85;21175;-74
2021/04/20 07:20:56;;;;;;;24.65;16.25;;;;;;;13.68;76.32;100569.94;1675903;85;21231;-74
2021/04/20 07:23:57;;;;;;;26.62;16.15;;;;;;;13.77;76.08;100564.28;1677892;85;21143;-74
2021/04/20 07:26:35;;;;;;;20.55;14.35;;;;;;;13.99;75.87;100565.19;1700269;84;21218;-74
2021/04/20 07:29:40;;;;;;;24.98;15.10;;;;;;;14.11;75.54;100561.52;1679910;84;21698;-74
2021/04/20 07:32:23;;;;;;;20.60;14.43;;;;;;;14.01;75.21;100560.45;1678107;85;21182;-75
2021/04/20 07:35:10;;;;;;;23.50;14.35;;;;;;;13.84;74.97;100556.33;1678051;84;21172;-74
2021/04/20 07:37:48;;;;;;;24.82;16.02;;;;;;;13.71;74.76;100558.84;1678125;85;21226;-75
2021/04/20 07:40:26;;;;;;;30.25;17.65;;;;;;;13.80;74.52;100551.02;1678160;85;21341;-75
2021/04/20 07:43:25;;;;;;;28.92;21.45;;;;;;;13.85;74.27;100555.31;1667541;86;21191;-74
2021/04/20 07:46:14;;;;;;;37.05;19.62;;;;;;;13.97;74.05;100553.80;1668317;86;21229;-74
2021/04/20 07:49:11;;;;;;;27.62;18.85;;;;;;;14.00;73.80;100554.80;1655403;84;21180;-75
2021/04/20 07:51:57;;;;;;;25.65;19.25;;;;;;;14.20;73.62;100557.19;1691380;84;21204;-75
2021/04/20 07:54:48;;;;;;;31.17;20.77;;;;;;;14.46;73.36;100553.99;1673431;84;21222;-75
2021/04/20 07:57:26;;;;;;;27.93;19.23;;;;;;;14.68;73.07;100545.40;1691799;84;21613;-75
2021/04/20 08:00:13;;;;;;;27.95;18.92;;;;;;;14.79;72.88;100544.88;1673205;84;21212;-75
2021/04/20 08:03:19;;;;;;;24.70;15.50;;;;;;;14.94;72.57;100546.98;1691958;84;21136;-75
2021/04/20 08:05:47;;;;;;;26.02;15.30;;;;;;;15.08;72.33;100547.91;1691924;84;21179;-75
2021/04/20 08:08:24;;;;;;;17.32;13.35;;;;;;;15.27;72.08;100547.23;1660597;86;21288;-75
2021/04/20 08:10:59;;;;;;;24.37;15.18;;;;;;;15.45;71.84;100542.98;1644656;86;21140;-75
2021/04/20 08:13:58;;;;;;;26.60;15.95;;;;;;;15.67;71.19;100537.55;1681560;84;21721;-74
2021/04/20 08:16:34;;;;;;;;;;;;;;;15.67;71.19;100537.55;1671064;85;21169;-75
2021/04/20 08:19:23;;;;;;;24.10;15.68;;;;;;;15.74;70.93;100533.04;1668279;84;20299;-75
2021/04/20 08:21:50;;;;;;;32.23;15.05;;;;;;;15.74;70.93;100533.04;1668504;84;21288;-75
2021/04/20 08:24:31;;;;;;;38.17;18.07;;;;;;;15.53;70.52;100536.66;1641143;87;21211;-75
2021/04/20 08:27:26;;;;;;;27.95;18.42;;;;;;;15.40;70.44;100533.88;1641266;87;21187;-75
2021/04/20 08:29:53;;;;;;;19.62;13.08;;;;;;;15.23;70.31;100534.70;1616085;88;21200;-75
2021/04/20 08:32:22;;;;;;;22.85;14.83;;;;;;;15.05;70.10;100529.00;1615982;88;22021;-75
2021/04/20 08:34:53;;;;;;;18.90;12.78;;;;;;;14.91;69.94;100538.81;1625306;87;21236;-75
2021/04/20 08:37:34;;;;;;;18.90;13.68;;;;;;;15.03;69.89;100535.56;1641122;87;21215;-75
2021/04/20 08:40:24;;;;;;;17.87;13.00;;;;;;;15.09;69.60;100536.15;1641199;87;21750;-74
2021/04/20 08:43:30;;;;;;;18.02;11.45;;;;;;;14.96;69.32;100531.48;1651268;86;21220;-74
2021/04/20 08:46:06;;;;;;;26.48;17.05;;;;;;;14.96;69.32;100531.48;1649921;85;21181;-75
2021/04/20 08:48:49;;;;;;;20.95;12.78;;;;;;;15.42;69.01;100533.98;1640426;86;21373;-75
2021/04/20 08:51:31;;;;;;;34.90;18.73;;;;;;;15.69;68.76;100534.17;1652323;85;21644;-75
2021/04/20 08:54:11;;;;;;;30.40;17.00;;;;;;;15.91;68.51;100520.39;1647005;86;21606;-75
2021/04/20 08:57:00;;;;;;;17.35;10.55;;;;;;;16.10;68.28;100519.31;1664171;85;21164;-75
2021/04/20 08:59:56;;;;;;;12.88;9.75;;;;;;;16.18;68.01;100517.79;1664246;86;21205;-75
2021/04/20 09:03:02;;;;;;;13.05;9.08;;;;;;;16.34;67.81;100512.85;1652086;86;21230;-75
2021/04/20 09:05:55;;;;;;;14.40;9.88;;;;;;;16.50;67.43;100510.30;1639859;87;21763;-76
2021/04/20 09:08:43;;;;;;;12.23;9.35;;;;;;;16.73;67.15;100505.88;1619360;87;21194;-76
2021/04/20 09:11:20;;;;;;;14.47;9.95;;;;;;;16.81;66.82;100504.33;1636162;86;21216;-76
2021/04/20 09:13:59;;;;;;;12.85;9.78;;;;;;;16.96;66.57;100502.23;1636456;87;21188;-76
2021/04/20 09:16:44;;;;;;;16.65;9.93;;;;;;;17.09;66.33;100502.23;1636376;86;21227;-76
2021/04/20 09:19:14;;;;;;;20.70;10.38;;;;;;;17.24;66.14;100497.41;1636267;86;21220;-76
2021/04/20 09:21:58;;;;;;;16.27;10.00;;;;;;;17.32;65.88;100497.20;1652129;86;21239;-76
2021/04/20 09:24:27;;;;;;;16.17;9.50;;;;;;;17.43;65.64;100489.81;1670798;84;21147;-76
2021/04/20 09:27:26;;;;;;;11.70;9.47;;;;;;;17.41;65.33;100494.59;1670143;84;21161;-76
2021/04/20 09:30:06;;;;;;;13.45;8.80;;;;;;;17.45;65.04;100489.61;1661988;84;21647;-76
2021/04/20 09:32:41;;;;;;;17.20;9.83;;;;;;;17.46;64.69;100489.38;1666946;85;21621;-77
2021/04/20 09:35:08;;;;;;;14.73;9.10;;;;;;;17.62;64.35;100492.69;1676896;84;21224;-74
2021/04/20 09:37:36;;;;;;;14.98;8.08;;;;;;;17.67;63.89;100486.11;1662918;84;21197;-74
2021/04/20 09:40:05;;;;;;;9.20;7.22;;;;;;;17.70;63.47;100488.37;1682279;84;21196;-75
2021/04/20 09:42:31;;;;;;;11.53;7.90;;;;;;;17.65;62.88;100488.21;1670765;84;21225;-75
2021/04/20 09:45:39;;;;;;;13.72;7.70;;;;;;;17.46;61.90;100489.38;1669358;84;21224;-74
2021/04/20 09:48:38;;;;;;;15.75;8.45;;;;;;;17.43;61.30;100488.46;1677529;84;21538;-74
2021/04/20 09:51:14;;;;;;;16.20;9.25;;;;;;;17.39;60.72;100491.27;1670221;84;21196;-75
2021/04/20 09:53:58;;;;;;;16.17;9.38;;;;;;;17.36;60.48;100487.66;1645612;84;21588;-75
2021/04/20 09:56:56;;;;;;;13.75;8.05;;;;;;;17.51;60.23;100486.57;1837057;77;22502;-76
2021/04/20 09:59:45;;;;;;;10.55;8.73;;;;;;;17.64;60.01;100481.15;1805478;78;21189;-76
2021/04/20 10:02:34;;;;;;;;;;;;;;;17.67;59.77;100484.77;1795512;78;21291;-77
2021/04/20 10:05:32;;;;;;;14.60;9.33;;;;;;;17.73;59.73;100486.62;1803291;78;20576;-76
2021/04/20 10:08:37;;;;;;;13.83;6.92;;;;;;;17.76;59.60;100482.15;1806621;78;21171;-76
2021/04/20 10:11:34;;;;;;;9.80;7.12;;;;;;;17.85;59.38;100483.55;1767734;80;21918;-76
2021/04/20 10:14:30;;;;;;;10.75;7.78;;;;;;;17.83;58.79;100477.55;1731518;81;21156;-76
2021/04/20 10:17:10;;;;;;;8.63;7.08;;;;;;;17.80;58.38;100481.48;1741333;81;21215;-76
2021/04/20 10:19:42;;;;;;;15.15;7.55;;;;;;;17.76;58.03;100471.36;1773756;80;21159;-76
2021/04/20 10:22:43;;;;;;;15.90;8.78;;;;;;;17.82;57.71;100463.23;1714043;82;21232;-76
2021/04/20 10:25:23;;;;;;;12.98;6.92;;;;;;;17.97;57.46;100464.30;1740429;81;21208;-76
2021/04/20 10:28:06;;;;;;;12.33;8.33;;;;;;;18.07;57.23;100466.00;1737864;81;21179;-76
2021/04/20 10:30:33;;;;;;;14.73;7.55;;;;;;;18.03;57.00;100472.03;1713435;82;22021;-75
2021/04/20 10:32:59;;;;;;;12.07;7.70;;;;;;;17.90;56.66;100470.25;1746585;81;21199;-75
2021/04/20 10:35:31;;;;;;;10.32;6.42;;;;;;;17.84;56.35;100471.09;1737315;82;21198;-76
2021/04/20 10:38:00;;;;;;;13.03;6.78;;;;;;;17.87;56.03;100467.98;1749252;81;21568;-75
2021/04/20 10:40:34;;;;;;;9.98;6.83;;;;;;;17.94;55.78;100460.14;1754882;81;21155;-75
2021/04/20 10:43:05;;;;;;;12.90;7.22;;;;;;;17.99;55.58;100456.80;1738521;82;21716;-75
2021/04/20 10:45:32;;;;;;;11.50;8.33;;;;;;;18.18;55.52;100453.16;1756248;81;21151;-75
2021/04/20 10:47:58;;;;;;;9.20;7.45;;;;;;;18.32;55.35;100447.97;1760719;81;21418;-75
2021/04/20 10:50:26;;;;;;;15.13;8.58;;;;;;;18.33;55.23;100448.25;1745307;81;21231;-75
2021/04/20 10:53:10;;;;;;;11.35;8.30;;;;;;;18.40;55.18;100441.48;1738910;82;21148;-76
2021/04/20 10:55:40;;;;;;;11.50;7.72;;;;;;;18.45;55.17;100438.41;1717029;82;21221;-76
2021/04/20 10:58:07;;;;;;;10.82;7.53;;;;;;;18.50;55.05;100436.92;1729453;81;21195;-76
2021/04/20 11:00:34;;;;;;;13.25;7.55;;;;;;;18.49;54.76;100432.05;1765258;80;21100;-75
2021/04/20 11:03:00;;;;;;;11.80;6.70;;;;;;;18.52;54.50;100436.20;1753474;81;21167;-76
2021/04/20 11:05:28;;;;;;;14.60;7.33;;;;;;;18.62;54.33;100431.13;1752195;81;21148;-75
2021/04/20 11:07:55;;;;;;;11.53;7.50;;;;;;;18.72;54.17;100426.04;1759966;81;21328;-76
2021/04/20 11:10:26;;;;;;;11.28;5.95;;;;;;;18.75;53.91;100420.22;1759747;81;21152;-75
2021/04/20 11:12:50;;;;;;;8.98;5.15;;;;;;;18.70;53.66;100425.45;1759412;81;21165;-76
2021/04/20 11:15:26;;;;;;;8.90;5.87;;;;;;;18.63;53.18;100410.66;1741179;81;21160;-75
2021/04/20 11:18:04;;;;;;;13.98;7.08;;;;;;;18.62;53.02;100410.34;1704030;81;21193;-75
2021/04/20 11:20:49;;;;;;;7.25;5.58;;;;;;;18.67;52.81;100420.49;1752006;81;21133;-75
2021/04/20 11:23:19;;;;;;;8.75;5.67;;;;;;;18.74;52.24;100411.80;1751959;81;21158;-76
2021/04/20 11:26:00;;;;;;;7.10;5.08;;;;;;;18.69;51.77;100402.17;1752218;81;21522;-76
2021/04/20 11:28:43;;;;;;;7.62;4.40;;;;;;;18.82;51.52;100405.56;1751809;81;21193;-76
2021/04/20 11:31:33;;;;;;;8.03;5.03;;;;;;;18.95;51.00;100405.97;1745341;81;21451;-75
2021/04/20 11:34:21;;;;;;;7.22;5.17;;;;;;;18.94;50.56;100402.44;1759469;81;21379;-76
2021/04/20 11:37:06;;;;;;;9.63;5.93;;;;;;;18.86;49.90;100393.27;1759415;81;21178;-76
2021/04/20 11:39:46;;;;;;;8.40;5.40;;;;;;;18.67;49.54;100397.01;1759275;81;21577;-75
2021/04/20 11:42:16;;;;;;;8.40;5.47;;;;;;;18.69;49.63;100392.72;1751626;81;28312;-75
2021/04/20 11:44:49;;;;;;;9.65;5.30;;;;;;;18.57;49.62;100382.36;1754399;81;21147;-75